Time;durP1;ratioP1;P1;durP2;ratioP2;P2;SDS_P1;SDS_P2;PMS_P1;PMS_P2;Temp;Humidity;BMP_temperature;BMP_pressure;BME280_temperature;BME280_humidity;BME280_pressure;Samples;Min_cycle;Max_cycle;Signal;HPM_P1;HPM_P2
2021/07/23 00:02:16;;;;;;;11.43;5.97;;;;;;;15.28;81.91;101517.56;5000338;28;20459;-49
2021/07/23 00:04:45;;;;;;;11.87;5.57;;;;;;;15.45;81.17;101506.03;4994377;28;20933;-52
2021/07/23 00:07:12;;;;;;;12.40;6.80;;;;;;;15.58;80.86;101504.72;4997507;28;20467;-54
2021/07/23 00:09:41;;;;;;;15.20;5.87;;;;;;;15.70;79.60;101504.25;4994467;28;20541;-52
2021/07/23 00:12:09;;;;;;;31.70;16.10;;;;;;;15.74;81.31;101500.91;4997422;28;20459;-51
2021/07/23 00:14:37;;;;;;;9.10;5.87;;;;;;;15.73;80.49;101504.34;4994939;28;20939;-47
2021/07/23 00:17:05;;;;;;;12.10;5.53;;;;;;;15.83;79.79;101504.66;5000386;28;20471;-49
2021/07/23 00:19:33;;;;;;;13.93;5.87;;;;;;;15.79;80.02;101507.13;4994271;28;20493;-52
2021/07/23 00:22:00;;;;;;;11.50;5.23;;;;;;;15.77;79.97;101508.81;4997679;28;20484;-51
2021/07/23 00:24:28;;;;;;;11.57;5.90;;;;;;;15.89;80.59;101510.06;4994303;28;20486;-48
2021/07/23 00:26:55;;;;;;;14.43;7.77;;;;;;;15.92;79.89;101507.56;4997042;28;20465;-50
2021/07/23 00:29:23;;;;;;;16.60;6.57;;;;;;;15.79;80.42;101504.53;4994280;28;20489;-51
2021/07/23 00:31:52;;;;;;;9.73;5.33;;;;;;;15.77;80.41;101506.22;4997281;28;20782;-49
2021/07/23 00:34:19;;;;;;;9.40;5.57;;;;;;;15.83;80.44;101504.66;4994109;28;20492;-48
2021/07/23 00:36:47;;;;;;;14.33;6.77;;;;;;;15.89;80.66;101510.06;4996959;28;20462;-54
2021/07/23 00:39:14;;;;;;;10.80;5.90;;;;;;;15.91;80.61;101500.56;4994034;28;20947;-49
2021/07/23 00:41:42;;;;;;;14.10;5.70;;;;;;;15.82;80.86;101505.47;4997094;28;20485;-51
2021/07/23 00:44:10;;;;;;;10.70;5.67;;;;;;;15.86;80.77;101507.34;4989362;28;20488;-53
2021/07/23 00:46:38;;;;;;;13.03;4.63;;;;;;;15.85;80.96;101508.19;4996572;28;20574;-54
2021/07/23 00:49:07;;;;;;;13.90;5.80;;;;;;;15.82;81.46;101497.66;4993882;28;20478;-51
2021/07/23 00:51:35;;;;;;;15.17;6.90;;;;;;;15.81;81.57;101502.00;4997020;28;20519;-51
2021/07/23 00:54:04;;;;;;;11.40;5.90;;;;;;;15.82;81.11;101495.06;4988764;28;20485;-50
2021/07/23 00:56:31;;;;;;;13.83;6.20;;;;;;;15.76;82.03;101504.44;4996452;28;20461;-51
2021/07/23 00:59:00;;;;;;;9.43;6.00;;;;;;;15.75;81.86;101492.25;4993180;28;20490;-53
2021/07/23 01:01:27;;;;;;;10.10;6.20;;;;;;;15.80;81.58;101495.88;4996886;28;20481;-49
2021/07/23 01:03:56;;;;;;;13.60;7.00;;;;;;;15.86;81.44;101500.44;4993759;28;20481;-54
2021/07/23 01:06:25;;;;;;;17.17;5.60;;;;;;;15.91;81.06;101492.75;4996473;28;20780;-49
2021/07/23 01:08:52;;;;;;;13.40;7.13;;;;;;;15.95;80.90;101492.06;4988929;28;20478;-47
2021/07/23 01:11:20;;;;;;;14.13;7.17;;;;;;;15.93;80.71;101493.72;4996544;28;20486;-50
2021/07/23 01:13:48;;;;;;;16.20;7.33;;;;;;;15.80;81.55;101495.88;4993122;28;20488;-50
2021/07/23 01:16:16;;;;;;;14.97;7.20;;;;;;;15.89;81.62;101495.31;4996265;28;20461;-51
2021/07/23 01:18:43;;;;;;;12.30;6.80;;;;;;;15.80;82.15;101489.81;4993466;28;20491;-50
2021/07/23 01:21:11;;;;;;;13.80;8.63;;;;;;;15.80;82.64;101490.69;4996366;28;20492;-53
2021/07/23 01:23:41;;;;;;;13.60;6.67;;;;;;;15.78;82.94;101492.38;4989018;28;20482;-50
2021/07/23 01:26:08;;;;;;;15.27;7.20;;;;;;;15.74;83.89;101495.69;4995946;28;20469;-49
2021/07/23 01:28:38;;;;;;;13.60;8.40;;;;;;;15.62;85.05;101495.28;4992876;28;20480;-50
2021/07/23 01:31:05;;;;;;;15.33;7.50;;;;;;;15.57;86.43;101499.47;4998735;28;20484;-53
2021/07/23 01:33:33;;;;;;;18.20;7.60;;;;;;;15.61;86.90;101499.63;4992936;28;20498;-52
2021/07/23 01:36:01;;;;;;;15.83;8.10;;;;;;;15.78;87.24;101496.69;4991345;28;20468;-48
2021/07/23 01:38:29;;;;;;;13.20;7.93;;;;;;;15.71;87.42;101498.22;4993193;28;20475;-51
2021/07/23 01:40:58;;;;;;;16.80;9.03;;;;;;;15.72;88.01;101494.78;4998574;28;20475;-50
2021/07/23 01:43:25;;;;;;;19.10;8.80;;;;;;;15.59;89.09;101490.00;4993016;28;20458;-51
2021/07/23 01:45:54;;;;;;;13.00;8.30;;;;;;;15.72;89.75;101497.38;4995722;28;20464;-48
2021/07/23 01:48:21;;;;;;;15.60;8.70;;;;;;;15.89;89.15;101492.69;4992871;28;20469;-47
2021/07/23 01:50:49;;;;;;;23.10;9.10;;;;;;;15.91;89.01;101484.94;4995569;28;20496;-51
2021/07/23 01:53:16;;;;;;;15.73;9.00;;;;;;;15.91;89.12;101487.56;4992895;28;20574;-52
2021/07/23 01:55:45;;;;;;;20.53;9.57;;;;;;;15.85;89.94;101492.56;4995470;28;20493;-49
2021/07/23 01:58:14;;;;;;;17.60;9.67;;;;;;;15.86;90.57;101486.53;4992875;28;20883;-50
2021/07/23 02:00:41;;;;;;;21.07;8.93;;;;;;;15.76;90.96;101487.94;4995407;28;20504;-50
2021/07/23 02:03:09;;;;;;;18.73;10.03;;;;;;;15.72;91.51;101486.06;4998115;28;20458;-50
2021/07/23 02:05:37;;;;;;;14.80;9.20;;;;;;;15.88;91.31;101480.53;4994266;28;20479;-49
2021/07/23 02:08:05;;;;;;;15.60;9.07;;;;;;;15.95;90.98;101484.25;4995844;28;20798;-49
2021/07/23 02:10:33;;;;;;;18.23;9.07;;;;;;;15.97;91.03;101481.69;4992476;28;20482;-49
2021/07/23 02:13:01;;;;;;;15.70;9.07;;;;;;;16.06;90.76;101479.38;4995427;28;20749;-54
2021/07/23 02:15:30;;;;;;;20.13;9.90;;;;;;;16.09;90.77;101474.25;4992219;28;20485;-50
2021/07/23 02:17:57;;;;;;;19.40;9.33;;;;;;;16.21;90.18;101471.16;4995557;28;20461;-54
2021/07/23 02:20:25;;;;;;;15.67;8.87;;;;;;;16.25;89.65;101473.00;4992398;28;20943;-51
2021/07/23 02:22:52;;;;;;;18.40;10.00;;;;;;;15.99;91.13;101475.69;4995642;28;20469;-52
2021/07/23 02:25:20;;;;;;;16.60;8.97;;;;;;;15.99;91.61;101473.09;4992199;28;20488;-53
2021/07/23 02:27:47;;;;;;;15.60;8.50;;;;;;;16.03;91.83;101467.16;4995384;28;20458;-50
2021/07/23 02:30:15;;;;;;;13.93;8.73;;;;;;;16.21;91.01;101471.16;4992010;28;20486;-51
2021/07/23 02:32:44;;;;;;;18.67;9.23;;;;;;;16.22;90.73;101472.91;4995250;28;20459;-51
2021/07/23 02:35:12;;;;;;;17.47;8.43;;;;;;;16.09;90.99;101474.25;4992051;28;20496;-50
2021/07/23 02:37:40;;;;;;;15.20;9.10;;;;;;;16.27;90.81;101476.53;4995213;28;20787;-51
2021/07/23 02:40:09;;;;;;;19.10;8.87;;;;;;;16.17;91.25;101471.88;4994266;28;20481;-50
2021/07/23 02:42:36;;;;;;;17.13;8.87;;;;;;;16.43;90.92;101474.38;4999365;28;20469;-50
2021/07/23 02:45:05;;;;;;;14.87;8.47;;;;;;;16.40;89.72;101472.56;4991527;28;20794;-50
2021/07/23 02:47:33;;;;;;;17.80;9.20;;;;;;;16.24;90.87;101472.97;4999057;28;20465;-52
2021/07/23 02:50:02;;;;;;;26.87;15.80;;;;;;;16.13;91.68;101477.81;4996184;28;20493;-50
2021/07/23 02:52:29;;;;;;;22.87;11.50;;;;;;;16.22;91.74;101472.91;4999401;28;20461;-49
2021/07/23 02:54:57;;;;;;;13.80;8.40;;;;;;;16.30;91.50;101471.41;4995911;28;20496;-49
2021/07/23 02:57:24;;;;;;;16.10;7.47;;;;;;;16.15;91.87;101476.16;4998671;28;20465;-53
2021/07/23 02:59:52;;;;;;;19.13;10.03;;;;;;;16.13;92.37;101476.13;4997122;28;20505;-51
2021/07/23 03:02:19;;;;;;;17.57;10.50;;;;;;;16.19;92.21;101467.59;4999246;28;20467;-51
2021/07/23 03:04:47;;;;;;;20.87;9.43;;;;;;;16.38;91.86;101479.44;4997267;28;20529;-48
2021/07/23 03:07:16;;;;;;;17.50;9.10;;;;;;;16.42;91.43;101477.81;4998541;28;20769;-52
2021/07/23 03:09:44;;;;;;;18.10;10.10;;;;;;;16.32;91.58;101474.94;4997076;28;20487;-51
2021/07/23 03:12:13;;;;;;;38.93;21.73;;;;;;;16.31;92.35;101477.50;4998902;28;20489;-49
2021/07/23 03:14:40;;;;;;;31.00;16.97;;;;;;;16.37;92.11;101476.78;4997064;28;20494;-50
2021/07/23 03:17:09;;;;;;;19.77;10.73;;;;;;;16.47;91.66;101468.41;4998493;28;20458;-49
2021/07/23 03:19:37;;;;;;;18.57;10.50;;;;;;;16.62;91.05;101462.78;4996863;28;20487;-53
2021/07/23 03:22:05;;;;;;;25.03;13.77;;;;;;;16.56;90.62;101458.25;5001095;28;20470;-50
2021/07/23 03:24:35;;;;;;;35.53;19.20;;;;;;;16.49;91.63;101463.22;4996639;28;20485;-51
2021/07/23 03:27:03;;;;;;;19.07;9.73;;;;;;;16.45;91.83;101460.56;4998401;28;20480;-48
2021/07/23 03:29:30;;;;;;;25.73;13.33;;;;;;;16.46;91.88;101469.28;4996640;28;20482;-47
2021/07/23 03:31:58;;;;;;;16.83;10.50;;;;;;;16.63;91.47;101471.44;4998635;28;20780;-54
2021/07/23 03:34:25;;;;;;;29.80;13.53;;;;;;;16.78;90.10;101453.66;4996700;28;20492;-51
2021/07/23 03:36:53;;;;;;;24.70;14.33;;;;;;;16.73;90.34;101455.25;4998095;28;20462;-51
2021/07/23 03:39:21;;;;;;;20.13;11.63;;;;;;;16.71;90.30;101456.91;4998912;28;21008;-50
2021/07/23 03:41:49;;;;;;;19.80;11.53;;;;;;;16.57;90.63;101456.53;4998247;28;20489;-51
2021/07/23 03:44:17;;;;;;;20.47;11.00;;;;;;;16.69;91.22;101453.38;4995720;28;20478;-52
2021/07/23 03:46:44;;;;;;;17.17;10.20;;;;;;;16.70;90.86;101458.66;4998008;28;20459;-50
2021/07/23 03:49:12;;;;;;;21.57;9.83;;;;;;;16.65;91.03;101456.72;4996374;28;20531;-48
2021/07/23 03:51:40;;;;;;;20.57;10.13;;;;;;;16.82;90.24;101450.28;4996687;28;20485;-50
2021/07/23 03:54:08;;;;;;;17.13;10.67;;;;;;;16.81;90.21;101448.50;4996103;28;20497;-50
2021/07/23 03:56:35;;;;;;;16.20;9.20;;;;;;;16.77;90.29;101454.47;4997859;28;20472;-53
2021/07/23 03:59:05;;;;;;;17.93;9.50;;;;;;;16.74;90.62;101465.72;4995397;28;20486;-49
2021/07/23 04:01:32;;;;;;;21.50;12.33;;;;;;;16.75;90.74;101456.16;4998012;28;20488;-51
2021/07/23 04:04:00;;;;;;;19.90;10.20;;;;;;;16.75;90.89;101463.97;4994718;28;20544;-49
2021/07/23 04:06:28;;;;;;;23.60;11.90;;;;;;;16.78;90.83;101458.88;4999964;28;20461;-52
2021/07/23 04:08:56;;;;;;;21.70;10.33;;;;;;;16.81;90.83;101464.13;4994132;28;20919;-52
2021/07/23 04:11:28;;;;;;;17.83;10.80;;;;;;;16.77;91.30;101466.63;4997865;28;20494;-53
2021/07/23 04:13:56;;;;;;;26.43;11.73;;;;;;;16.80;91.60;101458.88;4990085;28;20566;-53
2021/07/23 04:16:25;;;;;;;17.50;8.73;;;;;;;16.82;91.21;101462.44;4997421;28;20489;-53
2021/07/23 04:18:52;;;;;;;20.33;10.17;;;;;;;17.01;90.25;101456.88;4994244;28;20493;-50
2021/07/23 04:21:20;;;;;;;17.10;9.10;;;;;;;17.03;89.75;101456.94;4997677;28;20481;-51
2021/07/23 04:23:47;;;;;;;18.80;9.50;;;;;;;16.88;89.44;101460.00;4995781;28;20481;-48
2021/07/23 04:26:15;;;;;;;24.07;9.33;;;;;;;16.94;89.62;101465.38;4997245;28;20459;-48
2021/07/23 04:28:42;;;;;;;25.33;9.83;;;;;;;16.93;89.97;101454.91;4994181;28;20505;-53
2021/07/23 04:31:10;;;;;;;20.80;10.37;;;;;;;17.01;89.80;101458.56;4997260;28;20486;-52
2021/07/23 04:33:39;;;;;;;17.53;11.23;;;;;;;16.97;89.61;101455.00;4994136;28;20489;-50
2021/07/23 04:36:15;;;;;;;19.03;9.90;;;;;;;16.99;90.21;101462.88;4997030;28;20875;-53
2021/07/23 04:38:42;;;;;;;20.20;10.33;;;;;;;16.97;90.27;101461.97;4993678;28;20923;-48
2021/07/23 04:41:11;;;;;;;30.53;13.17;;;;;;;17.03;90.11;101463.88;5012508;28;20482;-52
2021/07/23 04:43:39;;;;;;;19.33;10.30;;;;;;;17.18;90.05;101458.19;4996106;28;20473;-51
2021/07/23 04:46:07;;;;;;;40.17;15.27;;;;;;;17.23;89.03;101465.25;5001098;28;20545;-48
2021/07/23 04:48:35;;;;;;;17.00;10.23;;;;;;;17.22;88.81;101454.81;5013216;28;20484;-48
2021/07/23 04:51:04;;;;;;;19.17;10.00;;;;;;;17.38;87.98;101469.13;5016561;28;20488;-50
2021/07/23 04:53:32;;;;;;;20.67;10.03;;;;;;;17.11;89.34;101458.03;5011171;28;20779;-52
2021/07/23 04:56:01;;;;;;;44.43;17.60;;;;;;;17.21;89.26;101473.88;5001317;28;20490;-51
2021/07/23 04:58:28;;;;;;;18.77;9.60;;;;;;;17.25;89.42;101467.91;4984611;28;20835;-48
2021/07/23 05:00:56;;;;;;;17.73;10.43;;;;;;;17.45;87.81;101467.53;5010257;28;20601;-48
2021/07/23 05:03:25;;;;;;;20.33;10.73;;;;;;;17.21;87.65;101466.06;4989937;28;20784;-51
2021/07/23 05:05:53;;;;;;;17.90;9.57;;;;;;;17.13;88.50;101466.75;4996318;28;20478;-52
2021/07/23 05:08:22;;;;;;;16.70;9.87;;;;;;;17.23;88.67;101467.88;4984392;28;20477;-51
2021/07/23 05:10:50;;;;;;;23.30;9.50;;;;;;;16.92;89.09;101467.03;5010727;28;20566;-47
2021/07/23 05:13:19;;;;;;;14.07;9.03;;;;;;;17.07;89.75;101465.72;4989170;28;20475;-50
2021/07/23 05:15:47;;;;;;;14.00;8.10;;;;;;;16.83;90.20;101472.88;4992947;28;20494;-51
2021/07/23 05:18:15;;;;;;;17.73;8.80;;;;;;;16.87;89.67;101469.53;4992884;28;20919;-49
2021/07/23 05:20:43;;;;;;;24.50;10.13;;;;;;;16.67;89.90;101470.72;4995925;28;20485;-53
2021/07/23 05:23:11;;;;;;;19.57;8.40;;;;;;;16.80;90.07;101467.59;4988827;28;20461;-56
2021/07/23 05:25:40;;;;;;;15.60;8.40;;;;;;;16.75;90.17;101463.97;4995202;28;20489;-50
2021/07/23 05:28:08;;;;;;;13.83;7.80;;;;;;;16.70;90.71;101465.56;4998882;28;20468;-51
2021/07/23 05:30:35;;;;;;;120.30;71.93;;;;;;;16.81;89.83;101464.13;4976445;28;20506;-47
2021/07/23 05:33:03;;;;;;;26.23;10.87;;;;;;;16.87;88.46;101459.09;4977004;28;20766;-51
2021/07/23 05:35:31;;;;;;;20.93;10.00;;;;;;;16.80;89.46;101457.16;4971381;28;20507;-48
2021/07/23 05:37:58;;;;;;;35.93;17.70;;;;;;;16.99;88.29;101455.06;4969962;28;20478;-54
2021/07/23 05:40:26;;;;;;;21.90;8.80;;;;;;;17.06;86.95;101453.50;4994337;28;20489;-49
2021/07/23 05:42:55;;;;;;;20.37;9.10;;;;;;;16.95;87.45;101455.81;4996533;28;20458;-48
2021/07/23 05:45:22;;;;;;;23.27;14.13;;;;;;;16.97;87.08;101451.53;4992437;28;20483;-54
2021/07/23 05:47:50;;;;;;;134.63;82.10;;;;;;;17.20;87.17;101448.66;4996082;28;20466;-46
2021/07/23 05:50:17;;;;;;;22.90;10.07;;;;;;;17.03;86.99;101445.63;4991084;28;20496;-51
2021/07/23 05:52:47;;;;;;;18.50;9.87;;;;;;;17.08;86.49;101446.63;4996192;28;20550;-47
2021/07/23 05:55:15;;;;;;;41.67;25.00;;;;;;;17.10;87.12;101451.03;4992772;28;20485;-50
2021/07/23 05:57:43;;;;;;;18.50;8.13;;;;;;;17.33;85.60;101444.66;4995941;28;20459;-51
2021/07/23 06:00:13;;;;;;;11.10;6.73;;;;;;;17.31;84.62;101444.59;4988598;28;20491;-49
2021/07/23 06:02:40;;;;;;;22.97;14.20;;;;;;;17.29;84.22;101446.31;4996088;28;20458;-49
2021/07/23 06:05:09;;;;;;;15.47;7.97;;;;;;;17.17;85.01;101440.78;4992642;28;20836;-49
2021/07/23 06:07:37;;;;;;;29.37;13.37;;;;;;;17.30;84.31;101445.44;4998270;28;20549;-51
2021/07/23 06:10:06;;;;;;;10.70;5.87;;;;;;;17.17;83.62;101440.78;4992271;28;20769;-46
2021/07/23 06:12:33;;;;;;;25.50;15.27;;;;;;;17.36;84.07;101445.59;4995835;28;20458;-52
2021/07/23 06:15:01;;;;;;;28.13;17.30;;;;;;;17.49;84.51;101449.38;4991677;28;20547;-48
2021/07/23 06:17:30;;;;;;;17.83;9.67;;;;;;;17.59;82.99;101455.69;4995302;28;20526;-50
2021/07/23 06:19:57;;;;;;;18.90;11.77;;;;;;;17.57;83.32;101446.09;4988145;28;20494;-50
2021/07/23 06:22:25;;;;;;;12.53;7.77;;;;;;;17.63;82.86;101460.16;4995261;28;20471;-53
2021/07/23 06:24:55;;;;;;;28.63;17.30;;;;;;;17.64;82.79;101463.66;4992114;28;20482;-48
2021/07/23 06:27:23;;;;;;;10.37;6.00;;;;;;;17.54;83.58;101459.94;4995305;28;20462;-51
2021/07/23 06:29:53;;;;;;;18.57;11.40;;;;;;;17.48;83.13;101465.00;4991559;28;20482;-50
2021/07/23 06:32:22;;;;;;;15.93;9.30;;;;;;;17.65;83.14;101466.28;4995423;28;20470;-50
2021/07/23 06:34:51;;;;;;;12.07;5.73;;;;;;;17.39;81.96;101457.84;4989679;28;20491;-50
2021/07/23 06:37:21;;;;;;;9.27;5.50;;;;;;;17.44;83.43;101461.44;4995107;28;20494;-52
2021/07/23 06:39:49;;;;;;;11.13;6.57;;;;;;;17.38;83.79;101459.56;4993420;28;20488;-49
2021/07/23 06:42:17;;;;;;;23.70;14.80;;;;;;;17.58;83.31;101463.50;4997936;28;20464;-49
2021/07/23 06:44:45;;;;;;;19.37;9.13;;;;;;;17.60;81.03;101462.69;4992082;28;20489;-48
2021/07/23 06:47:12;;;;;;;10.73;5.30;;;;;;;17.38;79.85;101461.31;5005091;28;20472;-51
2021/07/23 06:49:41;;;;;;;22.33;11.87;;;;;;;17.53;80.46;101468.59;5001618;28;20475;-50
2021/07/23 06:52:10;;;;;;;13.70;7.60;;;;;;;17.54;80.38;101465.16;5002604;28;20470;-49
2021/07/23 06:54:37;;;;;;;17.23;10.03;;;;;;;17.62;79.94;101466.22;4991597;28;20497;-48
2021/07/23 06:57:05;;;;;;;11.33;4.87;;;;;;;17.51;79.36;101462.47;5002028;28;20500;-50
2021/07/23 06:59:34;;;;;;;9.37;5.03;;;;;;;17.34;79.78;101465.53;4990977;28;20489;-49
2021/07/23 07:02:03;;;;;;;14.40;8.90;;;;;;;17.53;80.98;101463.38;4999600;28;20496;-51
2021/07/23 07:04:31;;;;;;;11.00;6.60;;;;;;;17.41;81.90;101458.75;4999588;28;20510;-50
2021/07/23 07:06:59;;;;;;;10.47;4.90;;;;;;;17.42;80.75;101468.34;5001001;28;20484;-53
2021/07/23 07:09:29;;;;;;;16.43;8.63;;;;;;;17.50;80.69;101465.91;4990193;28;20486;-50
2021/07/23 07:11:58;;;;;;;11.87;5.73;;;;;;;17.30;81.43;101463.72;5000203;28;20538;-53
2021/07/23 07:14:26;;;;;;;14.43;6.00;;;;;;;17.17;81.74;101464.25;4986055;28;20933;-52
2021/07/23 07:16:54;;;;;;;13.77;7.90;;;;;;;17.42;82.28;101468.34;4997025;28;20576;-51
2021/07/23 07:19:22;;;;;;;17.80;7.50;;;;;;;17.54;80.70;101463.41;4991474;28;20500;-49
2021/07/23 07:21:50;;;;;;;20.93;9.40;;;;;;;17.58;81.12;101466.13;5003273;28;20499;-51
2021/07/23 07:24:18;;;;;;;21.00;7.13;;;;;;;17.60;82.13;101473.13;4986016;28;20481;-52
2021/07/23 07:26:49;;;;;;;8.53;5.40;;;;;;;17.38;81.79;101469.97;4997555;28;20544;-48
2021/07/23 07:29:17;;;;;;;14.40;8.30;;;;;;;17.68;81.99;101466.38;4996395;28;20499;-50
2021/07/23 07:31:45;;;;;;;12.43;5.87;;;;;;;17.66;80.98;101467.16;5003383;28;20489;-46
2021/07/23 07:34:13;;;;;;;21.20;8.10;;;;;;;17.75;81.31;101469.13;4994012;28;20488;-49
2021/07/23 07:36:41;;;;;;;38.93;23.83;;;;;;;17.93;81.24;101472.16;5005200;28;20495;-49
2021/07/23 07:39:09;;;;;;;24.90;14.40;;;;;;;17.95;81.15;101480.03;4988879;28;20500;-50
2021/07/23 07:41:36;;;;;;;22.40;8.33;;;;;;;17.78;78.95;101477.00;4996229;28;20488;-48
2021/07/23 07:44:06;;;;;;;15.53;6.23;;;;;;;17.95;77.47;101478.28;4974723;28;20481;-46
2021/07/23 07:46:33;;;;;;;14.13;8.60;;;;;;;17.99;76.85;101466.19;4978553;28;20457;-46
2021/07/23 07:49:01;;;;;;;20.33;12.37;;;;;;;18.18;77.40;101467.50;4980955;28;20815;-46
2021/07/23 07:51:28;;;;;;;32.00;19.63;;;;;;;18.26;77.48;101464.19;4997885;28;20486;-46
2021/07/23 07:53:56;;;;;;;9.17;4.43;;;;;;;18.19;77.30;101473.59;4993684;28;20504;-48
2021/07/23 07:56:23;;;;;;;17.07;9.63;;;;;;;18.19;77.49;101473.59;5010575;28;20468;-48
2021/07/23 07:58:51;;;;;;;28.80;20.30;;;;;;;18.14;79.22;101470.03;4988942;28;20489;-48
2021/07/23 08:01:20;;;;;;;83.67;50.53;;;;;;;19.06;76.76;101466.63;4996735;28;20493;-48
2021/07/23 08:03:48;;;;;;;13.20;8.40;;;;;;;18.97;74.08;101462.94;4991659;28;20570;-47
2021/07/23 08:06:23;;;;;;;118.47;75.17;;;;;;;19.32;73.84;101458.34;4996827;28;20461;-47
2021/07/23 08:08:52;;;;;;;15.17;5.50;;;;;;;18.72;73.93;101461.63;4986233;28;20956;-48
2021/07/23 08:11:20;;;;;;;35.63;19.87;;;;;;;18.38;76.26;101474.88;4996712;28;20483;-47
2021/07/23 08:13:48;;;;;;;17.27;9.70;;;;;;;18.27;77.41;101471.16;4991368;28;20510;-48
2021/07/23 08:16:15;;;;;;;14.63;7.93;;;;;;;17.93;78.91;101474.75;4996188;28;20471;-50
2021/07/23 08:18:44;;;;;;;10.77;5.73;;;;;;;17.83;80.83;101475.38;4984887;28;20560;-48
2021/07/23 08:21:12;;;;;;;9.43;5.60;;;;;;;17.36;82.88;101484.72;4996602;28;20479;-49
2021/07/23 08:23:39;;;;;;;9.67;5.80;;;;;;;17.41;83.31;101480.50;4987020;28;20480;-48
2021/07/23 08:26:07;;;;;;;28.73;19.33;;;;;;;17.50;84.01;101482.47;5008219;28;20503;-48
2021/07/23 08:28:36;;;;;;;17.63;10.23;;;;;;;17.68;84.21;101479.41;4992435;28;20477;-47
2021/07/23 08:31:04;;;;;;;12.20;6.07;;;;;;;17.59;85.08;101479.16;4995740;28;20604;-47
2021/07/23 08:33:31;;;;;;;14.33;8.53;;;;;;;17.62;84.14;101470.53;4987180;28;20460;-48
2021/07/23 08:36:01;;;;;;;8.73;4.50;;;;;;;17.60;83.80;101467.91;5009129;28;20462;-46
2021/07/23 08:38:28;;;;;;;14.53;4.70;;;;;;;17.82;79.75;101460.56;4985193;28;20810;-48
2021/07/23 08:40:56;;;;;;;10.17;6.23;;;;;;;18.03;77.96;101462.78;4996500;28;20578;-47
2021/07/23 08:43:23;;;;;;;16.37;10.30;;;;;;;18.05;78.56;101455.00;4988347;28;20475;-48
2021/07/23 08:45:55;;;;;;;36.10;22.47;;;;;;;18.39;77.71;101460.06;4995690;28;20465;-49
2021/07/23 08:48:22;;;;;;;26.50;16.30;;;;;;;18.92;76.60;101456.72;4986170;28;20459;-49
2021/07/23 08:50:50;;;;;;;7.33;4.47;;;;;;;18.37;78.82;101461.78;5010274;28;20487;-47
2021/07/23 08:53:19;;;;;;;102.83;49.47;;;;;;;18.35;79.51;101464.34;4989106;28;20472;-46
2021/07/23 08:55:46;;;;;;;8.83;5.63;;;;;;;18.16;79.23;101465.72;4995565;28;20538;-47
2021/07/23 08:58:15;;;;;;;25.90;15.33;;;;;;;18.27;78.23;101465.94;4992232;28;20480;-48
2021/07/23 09:00:43;;;;;;;19.97;11.50;;;;;;;18.39;76.93;101455.75;4996535;28;20492;-46
2021/07/23 09:03:13;;;;;;;17.67;8.97;;;;;;;18.54;76.12;101451.66;4986754;28;20466;-49
2021/07/23 09:05:45;;;;;;;9.57;6.50;;;;;;;18.56;75.19;101448.22;4996074;28;20487;-46
2021/07/23 09:08:19;;;;;;;8.00;4.93;;;;;;;18.60;75.30;101455.28;4979812;28;20457;-49
2021/07/23 09:10:47;;;;;;;12.23;6.87;;;;;;;18.59;75.41;101457.88;4996392;28;20523;-46
2021/07/23 09:13:21;;;;;;;11.00;6.40;;;;;;;18.53;75.54;101455.13;4980715;28;20461;-53
2021/07/23 09:15:49;;;;;;;10.33;6.30;;;;;;;18.82;76.13;101455.69;5010639;28;20805;-49
2021/07/23 09:18:27;;;;;;;9.97;4.83;;;;;;;18.81;74.71;101453.94;4984465;28;20547;-47
2021/07/23 09:20:55;;;;;;;18.33;10.50;;;;;;;18.73;73.21;101451.16;5009933;28;20478;-46
2021/07/23 09:23:29;;;;;;;29.53;17.43;;;;;;;18.74;73.67;101452.94;4991654;28;20458;-46
2021/07/23 09:25:58;;;;;;;9.80;5.50;;;;;;;18.61;74.72;101453.56;5006466;28;20474;-48
2021/07/23 09:28:32;;;;;;;8.23;5.33;;;;;;;18.65;76.23;101455.38;4985988;28;20462;-49
2021/07/23 09:31:01;;;;;;;13.13;6.33;;;;;;;18.71;74.14;101449.41;5014989;28;20488;-49
2021/07/23 09:33:31;;;;;;;17.13;7.17;;;;;;;18.75;74.22;101443.34;5001004;28;20462;-48
2021/07/23 09:36:02;;;;;;;15.60;8.90;;;;;;;19.16;71.56;101434.53;5012683;28;20471;-47
2021/07/23 09:38:38;;;;;;;16.60;10.70;;;;;;;19.02;70.69;101427.34;5013363;28;20499;-48
2021/07/23 09:41:09;;;;;;;13.87;9.23;;;;;;;19.30;68.98;101427.78;5015238;28;20490;-49
2021/07/23 09:43:38;;;;;;;20.47;13.33;;;;;;;19.64;70.13;101427.44;4983605;28;20769;-47
2021/07/23 09:46:23;;;;;;;8.43;4.87;;;;;;;19.33;71.14;101428.72;4996028;28;20917;-46
2021/07/23 09:48:52;;;;;;;8.30;4.73;;;;;;;19.42;66.46;101432.34;4991423;28;20491;-47
2021/07/23 09:51:21;;;;;;;8.40;5.13;;;;;;;19.27;67.99;101429.47;4996397;28;20485;-47
2021/07/23 09:53:50;;;;;;;11.10;6.10;;;;;;;19.42;67.37;101424.50;4991966;28;20791;-47
2021/07/23 09:56:18;;;;;;;14.93;9.33;;;;;;;19.51;67.99;101425.50;4995836;28;20474;-48
2021/07/23 09:58:49;;;;;;;16.70;8.70;;;;;;;19.63;67.03;101430.03;4997860;28;20474;-46
2021/07/23 10:01:20;;;;;;;15.07;8.13;;;;;;;19.61;65.50;101426.50;5015735;28;20496;-48
2021/07/23 10:03:50;;;;;;;121.57;64.40;;;;;;;19.39;65.34;101424.44;5011589;28;20479;-45
2021/07/23 10:06:24;;;;;;;34.17;19.50;;;;;;;19.40;66.86;101426.22;5015399;28;20568;-46
2021/07/23 10:08:56;;;;;;;6.07;4.17;;;;;;;19.24;66.46;101426.81;5010946;28;20486;-46
2021/07/23 10:11:24;;;;;;;36.30;19.70;;;;;;;19.41;66.21;101421.84;5015602;28;20573;-46
2021/07/23 10:13:53;;;;;;;9.00;3.80;;;;;;;19.16;66.97;101421.44;5010884;28;20491;-46
2021/07/23 10:16:21;;;;;;;6.27;4.00;;;;;;;19.23;66.89;101410.22;5013668;28;20534;-49
2021/07/23 10:18:50;;;;;;;6.77;3.77;;;;;;;19.56;65.41;101418.59;4984174;28;20492;-46
2021/07/23 10:21:18;;;;;;;7.27;3.50;;;;;;;19.44;67.21;101411.44;5001134;28;20499;-46
2021/07/23 10:23:47;;;;;;;14.03;7.30;;;;;;;19.72;66.20;101417.06;4985334;28;20500;-49
2021/07/23 10:26:17;;;;;;;37.40;17.53;;;;;;;19.88;64.88;101405.06;4995214;28;20473;-47
2021/07/23 10:28:57;;;;;;;7.93;3.30;;;;;;;19.83;64.58;101407.63;4990069;28;20475;-46
2021/07/23 10:31:45;;;;;;;7.80;3.33;;;;;;;19.62;65.62;101404.69;4994995;28;20500;-50
2021/07/23 10:34:37;;;;;;;6.50;4.20;;;;;;;19.64;65.96;101403.00;4988890;28;20542;-48
2021/07/23 10:37:04;;;;;;;6.60;3.77;;;;;;;19.63;67.84;101399.50;4974298;28;20488;-50
2021/07/23 10:39:32;;;;;;;6.97;3.23;;;;;;;19.62;66.85;101400.38;4992002;28;20474;-47
2021/07/23 10:42:35;;;;;;;7.00;3.70;;;;;;;19.67;66.38;101408.28;4995060;28;20482;-46
2021/07/23 10:45:03;;;;;;;13.70;4.20;;;;;;;19.59;67.68;101402.94;4988448;28;20927;-51
2021/07/23 10:47:35;;;;;;;6.37;3.47;;;;;;;19.39;70.69;101400.03;4992424;28;20455;-48
2021/07/23 10:50:04;;;;;;;5.47;3.20;;;;;;;19.71;67.21;101397.00;4990459;28;20494;-51
2021/07/23 10:52:36;;;;;;;17.03;8.10;;;;;;;19.94;65.02;101404.28;4994184;28;20468;-46
2021/07/23 10:55:28;;;;;;;8.00;3.30;;;;;;;19.81;64.86;101398.91;4989796;28;20485;-47
2021/07/23 10:58:41;;;;;;;8.07;5.00;;;;;;;19.87;65.28;101399.81;4993447;28;20543;-47
2021/07/23 11:01:10;;;;;;;8.20;3.23;;;;;;;19.73;66.00;101395.28;4996847;28;20760;-48
2021/07/23 11:04:01;;;;;;;6.70;3.33;;;;;;;19.97;67.56;101404.34;4994614;28;20477;-47
2021/07/23 11:06:35;;;;;;;13.80;7.13;;;;;;;20.02;67.51;101401.78;4996004;28;20463;-47
2021/07/23 11:09:08;;;;;;;17.60;10.00;;;;;;;19.95;66.68;101406.06;4987731;28;20576;-48
2021/07/23 11:11:36;;;;;;;7.03;4.00;;;;;;;19.90;68.40;101405.97;4995505;28;20484;-46
2021/07/23 11:14:19;;;;;;;11.37;7.60;;;;;;;20.04;68.08;101405.31;4985103;28;20485;-47
2021/07/23 11:16:49;;;;;;;22.97;13.47;;;;;;;19.74;68.84;101410.13;4995557;28;20498;-48
2021/07/23 11:19:19;;;;;;;10.43;5.60;;;;;;;19.88;67.11;101404.22;4993959;28;20489;-49
2021/07/23 11:21:47;;;;;;;7.73;4.77;;;;;;;19.81;68.47;101403.25;4998428;28;20513;-51
2021/07/23 11:24:15;;;;;;;10.80;6.70;;;;;;;19.78;70.69;101404.06;4993423;28;20481;-49
2021/07/23 11:26:49;;;;;;;15.43;7.70;;;;;;;19.76;69.92;101410.16;4999518;28;20773;-48